<?xml version="1.0" encoding="UTF-8" standalone="no" ?>
<gpx xmlns="http://www.topografix.com/GPX/1/1" xmlns:xsi="http://www.w3.org/2001/XMLSchema-instance" xsi:schemaLocation="http://www.topografix.com/GPX/1/1 http://www.topografix.com/GPX/1/1/gpx.xsd" version="1.1" creator="VisuGPX - https://www.visugpx.com">
  <metadata>
    <name>Regordane</name>
    <desc><![CDATA[Vista Hcx:
Le Puy-en-Velay - Costaros
Temps ensoleillé, avec vent de Sud.

]]></desc>
  </metadata>
  <trk>
    <name><![CDATA[ACTIVE LOG081648]]></name>
    <trkseg>
      <trkpt lat="45.04586" lon="3.88423">
        <ele>619.484</ele>
        <time>2011-05-30T06:16:46Z</time>
      </trkpt>
      <trkpt lat="45.04588" lon="3.88421">
        <ele>618.438</ele>
        <time>2011-05-30T06:16:58Z</time>
      </trkpt>
      <trkpt lat="45.04588" lon="3.88421">
        <ele>618.765</ele>
        <time>2011-05-30T06:17:08Z</time>
      </trkpt>
      <trkpt lat="45.04614" lon="3.88407">
        <ele>617.465</ele>
        <time>2011-05-30T06:17:18Z</time>
      </trkpt>
      <trkpt lat="45.04641" lon="3.8841">
        <ele>617.14</ele>
        <time>2011-05-30T06:17:28Z</time>
      </trkpt>
      <trkpt lat="45.04655" lon="3.8841">
        <ele>616.485</ele>
        <time>2011-05-30T06:17:38Z</time>
      </trkpt>
      <trkpt lat="45.04655" lon="3.88391">
        <ele>613.7</ele>
        <time>2011-05-30T06:17:48Z</time>
      </trkpt>
      <trkpt lat="45.04509" lon="3.88374">
        <ele>612.384</ele>
        <time>2011-05-30T06:17:58Z</time>
      </trkpt>
      <trkpt lat="45.0451" lon="3.88371">
        <ele>611.459</ele>
        <time>2011-05-30T06:17:59Z</time>
      </trkpt>
      <trkpt lat="45.04504" lon="3.88357">
        <ele>611.039</ele>
        <time>2011-05-30T06:18:08Z</time>
      </trkpt>
      <trkpt lat="45.0452" lon="3.88337">
        <ele>610.999</ele>
        <time>2011-05-30T06:18:18Z</time>
      </trkpt>
      <trkpt lat="45.04529" lon="3.88319">
        <ele>608.735</ele>
        <time>2011-05-30T06:18:28Z</time>
      </trkpt>
      <trkpt lat="45.04536" lon="3.88311">
        <ele>607.797</ele>
        <time>2011-05-30T06:18:38Z</time>
      </trkpt>
      <trkpt lat="45.04534" lon="3.88309">
        <ele>607.741</ele>
        <time>2011-05-30T06:18:48Z</time>
      </trkpt>
      <trkpt lat="45.04533" lon="3.88312">
        <ele>607.699</ele>
        <time>2011-05-30T06:18:58Z</time>
      </trkpt>
    </trkseg>
  </trk>
</gpx>